Banner, Wyoming
Current Conditions -  °F | °C
As of 6:53 AM on Monday 20 Oct 2014 (Local Time) from KSHR Reporting Station
Clear Clear  
Wind Chill: 27°   Ceiling: Unl
Heat Index: 32°   Visibility: 10mi
Dew Point: 27°   Wind: 5mph
Humidity: 82%   Direction: 180°S
Pressure: 29.97"   Gusts: NA
Location:  44.6°N, 106.87°W
Report Text: KSHR 201253Z AUTO 18004KT 10SM CLR 00/M03 A2997 RMK AO2 SLP162 T00001028 TSNO $
Loading
Personal Weather Stations






























Interactive Weather Map
Tropical Storm Tracking
New forecast layout! Learn more

10-Day Weather Forecast

Advertisements
Track Severe Weather on mobile